Time;durP1;ratioP1;P1;durP2;ratioP2;P2;SDS_P1;SDS_P2;PMS_P1;PMS_P2;Temp;Humidity;BMP_temperature;BMP_pressure;BME280_temperature;BME280_humidity;BME280_pressure;Samples;Min_cycle;Max_cycle;Signal;HPM_P1;HPM_P2
2024/04/03 00:00:29;;;;;;;10.30;4.00;;;16.30;82.30;;;;;;4204579;27;20070;-39
2024/04/03 00:03:09;;;;;;;9.73;4.22;;;16.30;82.30;;;;;;4192828;27;20113;-40
2024/04/03 00:05:48;;;;;;;12.18;4.70;;;16.30;82.40;;;;;;4175958;28;20135;-40
2024/04/03 00:08:28;;;;;;;5.80;3.28;;;16.30;82.40;;;;;;4187935;28;20091;-40
2024/04/03 00:11:08;;;;;;;12.68;4.88;;;16.30;82.40;;;;;;4187334;28;20143;-40
2024/04/03 00:13:48;;;;;;;12.98;4.70;;;16.30;82.50;;;;;;4187865;28;20055;-40
2024/04/03 00:16:27;;;;;;;11.82;4.38;;;16.30;82.50;;;;;;4197346;28;20559;-40
2024/04/03 00:19:07;;;;;;;10.30;4.22;;;16.20;82.30;;;;;;4187219;28;20144;-40
2024/04/03 00:21:46;;;;;;;13.43;3.92;;;16.30;82.40;;;;;;4187888;28;20079;-40
2024/04/03 00:24:26;;;;;;;8.55;3.83;;;16.20;82.30;;;;;;4201461;28;20410;-39
2024/04/03 00:27:07;;;;;;;7.60;4.07;;;16.20;82.40;;;;;;4195335;28;20406;-40
2024/04/03 00:29:47;;;;;;;9.70;4.40;;;16.20;82.50;;;;;;4187405;28;20533;-40
2024/04/03 00:32:27;;;;;;;12.43;4.65;;;16.20;82.60;;;;;;4187659;28;20052;-40
2024/04/03 00:35:06;;;;;;;11.88;4.30;;;16.20;82.60;;;;;;4187808;28;20051;-40
2024/04/03 00:37:46;;;;;;;7.43;4.30;;;16.20;82.70;;;;;;4187757;28;20404;-40
2024/04/03 00:40:25;;;;;;;9.65;5.05;;;16.20;82.80;;;;;;4191810;28;20083;-40
2024/04/03 00:43:13;;;;;;;7.32;3.60;;;16.20;82.80;;;;;;4189749;28;20051;-40
2024/04/03 00:45:53;;;;;;;11.70;4.80;;;16.20;82.80;;;;;;4203902;28;20050;-40
2024/04/03 00:48:33;;;;;;;11.70;4.75;;;16.20;82.90;;;;;;4202730;28;20509;-40
2024/04/03 00:51:13;;;;;;;7.57;3.85;;;16.20;82.90;;;;;;4187295;28;20094;-40
2024/04/03 00:53:53;;;;;;;11.45;4.18;;;16.20;82.90;;;;;;4175576;28;20052;-40
2024/04/03 00:56:33;;;;;;;13.23;4.25;;;16.20;83.00;;;;;;4187157;28;20071;-40
2024/04/03 00:59:14;;;;;;;9.95;3.88;;;16.20;83.00;;;;;;4188709;28;20051;-39
2024/04/03 01:01:54;;;;;;;14.73;4.70;;;16.20;83.10;;;;;;4194727;28;20109;-40
2024/04/03 01:04:33;;;;;;;12.35;4.20;;;16.20;83.00;;;;;;4186086;28;20048;-40
2024/04/03 01:07:13;;;;;;;11.40;4.50;;;16.20;84.00;;;;;;4187514;28;20062;-45
2024/04/03 01:09:52;;;;;;;10.00;4.50;;;16.10;83.00;;;;;;4186769;28;20380;-48
2024/04/03 01:12:33;;;;;;;9.93;4.40;;;16.10;83.10;;;;;;4175312;28;20098;-47
2024/04/03 01:15:14;;;;;;;12.95;4.55;;;16.10;83.10;;;;;;4202948;28;20156;-45
2024/04/03 01:17:54;;;;;;;12.25;4.65;;;16.10;83.20;;;;;;4200899;28;20059;-44
2024/04/03 01:20:33;;;;;;;12.63;4.30;;;16.10;83.20;;;;;;4203306;28;20050;-44
2024/04/03 01:23:13;;;;;;;13.43;4.63;;;16.10;83.20;;;;;;4202946;28;20078;-44
2024/04/03 01:25:54;;;;;;;12.98;5.50;;;16.10;83.20;;;;;;4204134;27;20097;-44
2024/04/03 01:28:35;;;;;;;8.63;4.45;;;16.10;83.30;;;;;;4198174;28;20043;-44
2024/04/03 01:31:14;;;;;;;12.27;4.90;;;16.10;84.00;;;;;;4196892;27;20055;-45
2024/04/03 01:33:54;;;;;;;13.10;4.90;;;16.10;83.30;;;;;;4196345;28;20056;-47
2024/04/03 01:36:33;;;;;;;13.82;4.60;;;16.10;83.30;;;;;;4186946;28;20063;-47
2024/04/03 01:39:15;;;;;;;13.43;5.35;;;16.10;83.30;;;;;;4186964;28;20051;-47
2024/04/03 01:41:56;;;;;;;14.15;4.55;;;16.10;83.30;;;;;;4198249;28;20055;-48
2024/04/03 01:44:36;;;;;;;16.42;5.25;;;16.10;83.30;;;;;;4200776;28;20383;-46
2024/04/03 01:47:15;;;;;;;12.45;4.75;;;16.10;83.40;;;;;;4203279;28;20206;-46
2024/04/03 01:49:55;;;;;;;12.73;4.53;;;16.10;83.40;;;;;;4185923;28;20072;-46
2024/04/03 01:52:34;;;;;;;13.48;4.72;;;16.10;83.40;;;;;;4186589;28;20131;-48
2024/04/03 01:55:15;;;;;;;18.27;5.47;;;16.10;83.40;;;;;;4186264;28;20055;-47
2024/04/03 01:57:55;;;;;;;10.10;4.13;;;16.10;83.60;;;;;;4192413;28;20431;-49
2024/04/03 02:00:35;;;;;;;17.40;4.70;;;16.10;83.50;;;;;;4187476;28;20075;-47
2024/04/03 02:03:16;;;;;;;12.10;4.40;;;16.10;83.50;;;;;;4186213;28;20075;-46
2024/04/03 02:05:55;;;;;;;17.55;5.15;;;16.00;83.50;;;;;;4186693;28;20110;-47
2024/04/03 02:08:35;;;;;;;17.73;4.38;;;16.00;83.50;;;;;;4186197;28;20087;-44
2024/04/03 02:11:14;;;;;;;12.25;4.00;;;16.00;83.60;;;;;;4186611;28;20055;-45
2024/04/03 02:13:55;;;;;;;12.25;4.20;;;16.00;83.60;;;;;;4186861;28;20098;-47
2024/04/03 02:16:35;;;;;;;14.68;4.45;;;16.00;83.60;;;;;;4186251;28;20101;-46
2024/04/03 02:19:15;;;;;;;12.10;5.53;;;16.00;83.70;;;;;;4186550;28;20551;-46
2024/04/03 02:21:54;;;;;;;9.98;3.95;;;16.00;83.70;;;;;;4186369;28;20130;-44
2024/04/03 02:24:34;;;;;;;19.30;4.60;;;16.00;83.70;;;;;;4193086;28;20386;-44
2024/04/03 02:27:13;;;;;;;19.33;5.28;;;16.00;83.80;;;;;;4203081;28;20047;-44
2024/04/03 02:29:54;;;;;;;14.73;4.90;;;16.00;83.80;;;;;;4189439;28;20147;-46
2024/04/03 02:32:33;;;;;;;16.55;5.05;;;16.00;83.80;;;;;;4203322;28;20124;-48
2024/04/03 02:35:12;;;;;;;17.17;4.25;;;16.00;83.80;;;;;;4206237;28;20078;-46
2024/04/03 02:37:51;;;;;;;14.45;4.90;;;16.00;83.80;;;;;;4205830;28;20444;-46
2024/04/03 02:40:31;;;;;;;13.95;3.60;;;16.00;83.80;;;;;;4206520;28;20051;-46
2024/04/03 02:43:10;;;;;;;15.05;4.47;;;16.00;83.80;;;;;;4206017;28;20051;-47
2024/04/03 02:45:55;;;;;;;18.42;4.07;;;16.00;83.80;;;;;;4193049;28;20071;-45
2024/04/03 02:48:35;;;;;;;15.00;3.88;;;16.00;83.80;;;;;;4189178;28;20101;-47
2024/04/03 02:51:15;;;;;;;12.65;3.63;;;16.00;83.80;;;;;;4204396;28;20055;-43
2024/04/03 02:53:54;;;;;;;14.52;3.80;;;16.00;83.80;;;;;;4206182;28;20406;-48
2024/04/03 02:56:34;;;;;;;14.57;4.68;;;15.90;83.70;;;;;;4205661;28;20113;-46
2024/04/03 02:59:13;;;;;;;12.57;3.67;;;16.00;83.90;;;;;;4205904;28;20055;-46
2024/04/03 03:01:54;;;;;;;12.10;3.88;;;15.90;83.80;;;;;;4204796;27;20510;-45
2024/04/03 03:04:40;;;;;;;;;;;16.00;83.80;;;;;;4205179;28;20422;-46
2024/04/03 03:07:20;;;;;;;11.65;3.90;;;15.90;83.80;;;;;;4205210;28;19931;-47
2024/04/03 03:09:59;;;;;;;10.52;3.75;;;15.90;85.10;;;;;;4205424;28;20134;-48
2024/04/03 03:12:38;;;;;;;14.23;4.40;;;15.90;84.10;;;;;;4173934;28;20147;-49
2024/04/03 03:15:18;;;;;;;13.30;3.22;;;15.90;84.10;;;;;;4188790;28;20046;-47
2024/04/03 03:17:58;;;;;;;9.05;3.55;;;15.90;84.10;;;;;;4190737;27;20128;-46
2024/04/03 03:20:38;;;;;;;11.68;3.47;;;15.90;84.10;;;;;;4204281;28;20165;-48
2024/04/03 03:23:18;;;;;;;15.20;4.00;;;15.90;84.00;;;;;;4189619;28;20070;-46
2024/04/03 03:25:58;;;;;;;11.68;3.47;;;15.90;84.00;;;;;;4188061;28;20105;-46
2024/04/03 03:28:38;;;;;;;10.32;3.90;;;15.90;84.00;;;;;;4188287;28;20097;-48
2024/04/03 03:31:19;;;;;;;11.18;3.38;;;15.90;84.00;;;;;;4202347;28;20056;-44
2024/04/03 03:33:59;;;;;;;20.50;4.65;;;15.90;84.10;;;;;;4205024;28;20405;-46
2024/04/03 03:36:39;;;;;;;14.65;4.50;;;15.90;84.00;;;;;;4204091;28;20109;-41
2024/04/03 03:39:19;;;;;;;8.68;3.20;;;15.90;84.20;;;;;;4193604;28;20149;-41
2024/04/03 03:41:59;;;;;;;9.40;3.53;;;15.90;84.20;;;;;;4199388;28;20056;-41
2024/04/03 03:44:39;;;;;;;11.23;4.60;;;15.90;84.20;;;;;;4188171;28;20429;-41
2024/04/03 03:47:18;;;;;;;7.60;3.42;;;15.90;84.30;;;;;;4188148;28;20078;-41
2024/04/03 03:52:57;;;;;;;8.25;3.95;;;15.90;84.20;;;;;;4187178;28;20506;-41
2024/04/03 03:55:37;;;;;;;7.60;3.15;;;15.80;84.20;;;;;;4192439;28;20083;-41
2024/04/03 03:58:18;;;;;;;7.15;3.40;;;15.90;84.30;;;;;;4205168;28;20083;-41
2024/04/03 04:00:58;;;;;;;10.10;4.47;;;15.90;84.30;;;;;;4189054;28;20559;-42
2024/04/03 04:03:38;;;;;;;13.93;4.35;;;15.80;84.30;;;;;;4188741;28;20186;-41
2024/04/03 04:06:19;;;;;;;10.85;3.60;;;15.90;84.40;;;;;;4189886;28;20052;-41
2024/04/03 04:08:59;;;;;;;;;;;15.80;84.40;;;;;;4188754;28;20375;-41
2024/04/03 04:11:39;;;;;;;7.50;3.45;;;15.80;84.40;;;;;;4176670;28;19928;-41
2024/04/03 04:14:18;;;;;;;12.23;4.03;;;15.80;84.80;;;;;;4188627;28;20079;-41
2024/04/03 04:16:58;;;;;;;9.38;3.35;;;15.80;84.70;;;;;;4187029;28;20048;-42
2024/04/03 04:19:36;;;;;;;7.00;3.30;;;15.80;84.60;;;;;;4187776;28;20109;-42
2024/04/03 04:22:18;;;;;;;7.70;3.75;;;15.80;84.60;;;;;;4188075;28;20105;-41
2024/04/03 04:24:57;;;;;;;8.80;4.22;;;15.80;84.60;;;;;;4188032;28;20060;-41
2024/04/03 04:27:37;;;;;;;11.38;3.85;;;15.80;84.60;;;;;;4180243;28;20074;-41
2024/04/03 04:30:16;;;;;;;9.82;4.35;;;15.80;85.60;;;;;;4188255;28;20051;-41
2024/04/03 04:32:56;;;;;;;6.97;3.65;;;15.80;84.80;;;;;;4198126;27;20502;-41
2024/04/03 04:35:35;;;;;;;7.50;3.50;;;15.80;84.80;;;;;;4187606;28;20094;-42
2024/04/03 04:38:16;;;;;;;13.48;3.97;;;15.80;84.80;;;;;;4170515;28;20106;-41
2024/04/03 04:40:56;;;;;;;;;;;15.80;84.80;;;;;;4160382;28;20079;-42
2024/04/03 04:43:36;;;;;;;9.32;3.72;;;15.80;84.70;;;;;;4170950;28;19927;-41
2024/04/03 04:46:15;;;;;;;11.60;4.07;;;15.80;85.20;;;;;;4187027;28;20051;-41
2024/04/03 04:48:55;;;;;;;12.70;4.57;;;15.80;85.10;;;;;;4194060;28;20093;-41
2024/04/03 04:51:34;;;;;;;12.50;3.97;;;15.80;85.00;;;;;;4203243;28;20135;-41
2024/04/03 04:54:17;;;;;;;10.02;3.65;;;15.80;85.00;;;;;;4192184;28;20063;-42
2024/04/03 04:56:57;;;;;;;9.35;3.53;;;15.80;84.90;;;;;;4193590;28;20079;-41
2024/04/03 04:59:36;;;;;;;9.13;3.88;;;15.80;85.00;;;;;;4187166;28;20055;-41
2024/04/03 05:02:16;;;;;;;10.82;4.00;;;15.80;84.90;;;;;;4190795;27;20128;-42
2024/04/03 05:04:55;;;;;;;9.25;3.88;;;15.80;84.90;;;;;;4202120;27;20079;-41
2024/04/03 05:07:35;;;;;;;10.48;3.88;;;15.70;85.70;;;;;;4203847;28;20054;-41
2024/04/03 05:10:16;;;;;;;7.72;4.00;;;15.80;85.00;;;;;;4203425;28;20140;-41
2024/04/03 05:12:56;;;;;;;10.10;4.00;;;15.70;84.90;;;;;;4203584;28;20083;-41
2024/04/03 05:15:35;;;;;;;7.07;3.30;;;15.70;84.90;;;;;;4204154;28;20308;-42
2024/04/03 05:18:14;;;;;;;11.45;3.53;;;15.80;85.00;;;;;;4204073;28;20120;-41
2024/04/03 05:20:53;;;;;;;9.48;3.80;;;15.70;85.80;;;;;;4203805;28;20528;-41
2024/04/03 05:23:33;;;;;;;8.93;4.10;;;15.70;85.00;;;;;;4202871;28;20391;-41
2024/04/03 05:26:15;;;;;;;7.78;3.83;;;15.70;86.20;;;;;;4200776;28;20047;-41
2024/04/03 05:28:56;;;;;;;10.57;4.20;;;15.80;85.50;;;;;;4203488;28;20059;-41
2024/04/03 05:31:37;;;;;;;7.07;4.03;;;15.80;85.40;;;;;;4197708;28;22163;-41
2024/04/03 05:34:18;;;;;;;;;;;15.80;85.40;;;;;;4203938;28;20075;-41
2024/04/03 05:36:57;;;;;;;10.20;4.32;;;15.80;85.30;;;;;;4201916;28;19935;-41
2024/04/03 05:39:37;;;;;;;6.90;3.55;;;15.80;85.60;;;;;;4188291;28;20055;-41
2024/04/03 05:42:17;;;;;;;8.55;4.13;;;15.70;85.40;;;;;;4186421;28;20383;-41
2024/04/03 05:44:57;;;;;;;8.87;4.63;;;15.70;85.30;;;;;;4203322;28;20054;-41
2024/04/03 05:47:36;;;;;;;6.53;4.13;;;15.70;85.60;;;;;;4203312;28;20082;-41
2024/04/03 05:50:16;;;;;;;12.52;4.57;;;15.70;85.20;;;;;;4196367;28;20548;-41
2024/04/03 05:52:55;;;;;;;8.77;4.77;;;15.70;85.20;;;;;;4166498;28;20063;-46
2024/04/03 05:55:35;;;;;;;7.85;4.22;;;15.70;85.30;;;;;;4177364;28;20583;-45
2024/04/03 05:58:15;;;;;;;10.13;4.43;;;15.70;85.40;;;;;;4185925;28;20118;-46
2024/04/03 06:00:58;;;;;;;7.93;4.32;;;15.70;85.30;;;;;;4185898;28;20060;-47
2024/04/03 06:03:37;;;;;;;9.30;5.00;;;15.70;85.30;;;;;;4174674;28;20136;-46
2024/04/03 06:06:17;;;;;;;9.85;4.43;;;15.70;85.40;;;;;;4186839;28;20055;-46
2024/04/03 06:08:56;;;;;;;7.68;4.70;;;15.70;85.30;;;;;;4187932;28;20079;-46
2024/04/03 06:11:36;;;;;;;6.70;4.47;;;15.70;85.20;;;;;;4203104;28;20505;-45
2024/04/03 06:14:17;;;;;;;7.70;4.47;;;15.60;85.30;;;;;;4203155;28;20055;-48
2024/04/03 06:16:57;;;;;;;11.40;5.50;;;15.60;85.30;;;;;;4186029;28;20055;-46
2024/04/03 06:19:35;;;;;;;7.78;5.15;;;15.70;85.30;;;;;;4187707;28;20106;-48
2024/04/03 06:22:15;;;;;;;8.68;4.85;;;15.60;85.40;;;;;;4186918;28;20105;-46
2024/04/03 06:24:55;;;;;;;7.68;4.75;;;15.60;85.30;;;;;;4191407;28;20051;-46
2024/04/03 06:27:35;;;;;;;9.23;5.40;;;15.60;85.40;;;;;;4202805;28;20051;-46
2024/04/03 06:30:17;;;;;;;6.57;5.15;;;15.60;85.60;;;;;;4189335;28;20133;-45
2024/04/03 06:32:56;;;;;;;10.30;6.10;;;15.60;85.70;;;;;;4186444;28;20761;-47
2024/04/03 06:35:35;;;;;;;11.43;5.68;;;15.70;85.60;;;;;;4193076;28;20105;-46
2024/04/03 06:38:15;;;;;;;10.10;6.53;;;15.70;85.30;;;;;;4203013;28;20063;-46
2024/04/03 06:40:54;;;;;;;11.13;6.53;;;15.70;85.30;;;;;;4202676;28;20425;-45
2024/04/03 06:43:34;;;;;;;7.43;5.95;;;15.80;85.50;;;;;;4202211;28;20849;-47
2024/04/03 06:46:14;;;;;;;13.48;6.75;;;15.80;85.40;;;;;;4202551;28;20066;-45
2024/04/03 06:48:56;;;;;;;9.43;6.38;;;15.80;85.00;;;;;;4197045;28;20173;-46
2024/04/03 06:51:35;;;;;;;6.80;5.72;;;15.90;84.80;;;;;;4188391;28;20051;-48
2024/04/03 06:54:15;;;;;;;11.20;6.38;;;15.90;84.60;;;;;;4198923;28;20054;-47
2024/04/03 06:56:55;;;;;;;9.77;6.60;;;15.90;84.50;;;;;;4202958;28;20395;-45
2024/04/03 06:59:34;;;;;;;10.38;5.65;;;15.90;84.30;;;;;;4201432;28;20082;-47
2024/04/03 07:02:16;;;;;;;8.90;5.80;;;15.90;84.20;;;;;;4201901;28;20055;-47
2024/04/03 07:04:54;;;;;;;;;;;15.90;84.20;;;;;;4202905;28;20154;-47
2024/04/03 07:07:34;;;;;;;8.88;6.15;;;15.90;84.30;;;;;;4201795;28;20427;-48
2024/04/03 07:10:14;;;;;;;10.02;6.60;;;16.00;85.10;;;;;;4185949;28;20062;-48
2024/04/03 07:12:54;;;;;;;9.35;6.60;;;16.00;84.10;;;;;;4174238;28;20808;-46
2024/04/03 07:15:34;;;;;;;10.80;7.15;;;16.00;83.90;;;;;;4192191;28;20401;-48
2024/04/03 07:18:16;;;;;;;10.20;6.45;;;16.00;83.80;;;;;;4194907;28;20047;-45
2024/04/03 07:20:57;;;;;;;9.85;6.70;;;16.00;83.70;;;;;;4188229;28;20133;-45
2024/04/03 07:23:37;;;;;;;11.15;6.90;;;16.10;83.70;;;;;;4189269;28;20087;-45
2024/04/03 07:26:19;;;;;;;9.18;6.13;;;16.10;83.80;;;;;;4200265;28;20055;-45
2024/04/03 07:28:58;;;;;;;;;;;16.10;83.80;;;;;;4205869;28;20054;-46
2024/04/03 07:31:38;;;;;;;10.30;7.55;;;16.10;83.80;;;;;;4187070;28;19927;-41
2024/04/03 07:34:19;;;;;;;10.55;6.97;;;16.20;83.80;;;;;;4188362;28;20059;-42
2024/04/03 07:36:58;;;;;;;12.10;8.50;;;16.20;83.50;;;;;;4184064;28;20059;-41
2024/04/03 07:39:38;;;;;;;12.43;8.27;;;16.20;83.30;;;;;;4200028;28;20054;-42
2024/04/03 07:42:17;;;;;;;10.73;7.40;;;16.20;83.30;;;;;;4202320;28;20055;-42
2024/04/03 07:44:57;;;;;;;12.25;8.35;;;16.10;83.30;;;;;;4202578;28;20058;-41
2024/04/03 07:47:36;;;;;;;13.30;8.50;;;16.10;83.40;;;;;;4202699;28;20127;-41
2024/04/03 07:50:18;;;;;;;11.25;7.82;;;16.10;83.70;;;;;;4201509;28;20131;-41
2024/04/03 07:52:57;;;;;;;11.15;7.93;;;16.10;83.90;;;;;;4201817;28;20497;-42
2024/04/03 07:55:39;;;;;;;11.50;8.52;;;16.10;84.00;;;;;;4201985;28;20105;-41
2024/04/03 07:58:18;;;;;;;13.38;9.00;;;16.10;84.00;;;;;;4202468;28;20055;-41
2024/04/03 08:00:59;;;;;;;11.80;7.85;;;16.00;84.20;;;;;;4201995;28;20067;-41
2024/04/03 08:03:38;;;;;;;11.50;8.43;;;16.00;84.40;;;;;;4201382;28;20062;-41
2024/04/03 08:06:20;;;;;;;10.00;7.88;;;16.00;84.50;;;;;;4201659;28;20983;-41
2024/04/03 08:08:59;;;;;;;;;;;16.00;84.50;;;;;;4202076;28;20054;-41
2024/04/03 08:11:40;;;;;;;8.60;7.35;;;15.90;84.50;;;;;;4200971;28;19977;-40
2024/04/03 08:14:20;;;;;;;;;;;15.90;84.80;;;;;;4201343;28;20055;-40
2024/04/03 08:16:59;;;;;;;9.40;7.07;;;15.90;84.90;;;;;;4202286;28;20282;-41
2024/04/03 08:19:39;;;;;;;8.93;6.40;;;15.80;85.20;;;;;;4202164;28;20055;-42
2024/04/03 08:22:19;;;;;;;9.95;7.60;;;15.80;85.30;;;;;;4201883;28;20117;-40
2024/04/03 08:25:01;;;;;;;7.47;6.27;;;15.80;85.50;;;;;;4201753;28;20094;-40
2024/04/03 08:27:40;;;;;;;7.50;6.18;;;15.80;85.70;;;;;;4201833;28;20058;-40
2024/04/03 08:30:19;;;;;;;8.52;6.63;;;15.80;86.00;;;;;;4201898;28;20497;-40
2024/04/03 08:32:58;;;;;;;6.03;5.43;;;15.70;85.90;;;;;;4200409;28;20051;-40
2024/04/03 08:35:38;;;;;;;7.35;5.53;;;15.70;86.10;;;;;;4201028;28;20054;-40
2024/04/03 08:38:19;;;;;;;6.75;5.10;;;15.70;86.20;;;;;;4201817;28;20131;-40
2024/04/03 08:41:02;;;;;;;7.22;5.35;;;15.70;86.40;;;;;;4201013;28;20059;-40
2024/04/03 08:43:40;;;;;;;7.80;5.45;;;15.70;86.40;;;;;;4201789;28;20059;-40
2024/04/03 08:46:21;;;;;;;5.95;4.43;;;15.70;86.50;;;;;;4199423;28;20063;-40
2024/04/03 08:49:03;;;;;;;4.70;4.40;;;15.70;86.70;;;;;;4200892;28;20071;-40
2024/04/03 08:51:46;;;;;;;5.40;4.88;;;15.70;86.50;;;;;;4189864;28;20343;-40
2024/04/03 08:54:29;;;;;;;5.53;4.45;;;15.70;86.60;;;;;;4200917;28;20047;-40
2024/04/03 08:57:09;;;;;;;6.40;5.20;;;15.60;86.60;;;;;;4189183;28;20125;-40
2024/04/03 08:59:49;;;;;;;4.70;4.20;;;15.70;86.80;;;;;;4201179;28;20093;-40
2024/04/03 09:02:28;;;;;;;5.47;4.65;;;15.60;86.80;;;;;;4199558;28;20060;-40
2024/04/03 09:05:11;;;;;;;4.93;3.85;;;15.60;86.80;;;;;;4200027;28;20132;-40
2024/04/03 09:07:59;;;;;;;7.03;4.53;;;15.60;86.80;;;;;;4200812;28;20097;-40
2024/04/03 09:10:47;;;;;;;4.35;3.90;;;15.60;86.90;;;;;;4200298;28;20491;-40
2024/04/03 09:13:26;;;;;;;3.95;3.65;;;15.60;86.90;;;;;;4200671;28;20097;-40
2024/04/03 09:16:07;;;;;;;3.78;3.40;;;15.70;87.10;;;;;;4199259;28;20117;-40
2024/04/03 09:18:46;;;;;;;3.20;2.90;;;15.60;87.20;;;;;;4199208;28;20118;-40
2024/04/03 09:21:28;;;;;;;3.50;3.20;;;15.70;87.20;;;;;;4199422;28;20294;-40
2024/04/03 09:24:08;;;;;;;3.08;2.67;;;15.60;87.20;;;;;;4187592;28;20129;-40
2024/04/03 09:26:51;;;;;;;3.35;3.05;;;15.60;87.30;;;;;;4199056;28;20082;-39
2024/04/03 09:29:30;;;;;;;2.80;2.60;;;15.70;87.40;;;;;;4199406;28;20058;-40
2024/04/03 09:32:11;;;;;;;4.82;2.80;;;15.60;87.30;;;;;;4198665;28;20062;-40
2024/04/03 09:34:53;;;;;;;2.88;2.50;;;15.60;87.40;;;;;;4198989;28;20054;-40
2024/04/03 09:37:35;;;;;;;3.85;3.05;;;15.60;87.50;;;;;;4200742;28;20039;-40
2024/04/03 09:40:15;;;;;;;3.28;3.00;;;15.70;87.60;;;;;;4200483;28;20472;-40
2024/04/03 09:42:58;;;;;;;3.10;2.83;;;15.70;87.70;;;;;;4200487;28;20054;-40
2024/04/03 09:45:37;;;;;;;5.55;3.65;;;15.70;87.80;;;;;;4200744;28;20050;-40
2024/04/03 09:48:23;;;;;;;3.83;3.53;;;15.70;87.80;;;;;;4200778;28;21037;-40
2024/04/03 09:51:02;;;;;;;3.20;2.72;;;15.70;87.90;;;;;;4201022;28;20066;-40
2024/04/03 09:53:43;;;;;;;3.20;2.83;;;15.70;88.00;;;;;;4200318;28;20090;-40
2024/04/03 09:56:22;;;;;;;3.10;2.50;;;15.70;88.10;;;;;;4201197;28;20054;-40
2024/04/03 09:59:04;;;;;;;3.00;2.78;;;15.70;88.20;;;;;;4200718;28;20075;-40
2024/04/03 10:01:43;;;;;;;3.40;3.10;;;15.70;88.30;;;;;;4198947;28;20875;-39
2024/04/03 10:04:23;;;;;;;3.17;2.55;;;15.70;88.40;;;;;;4198419;28;20101;-40
2024/04/03 10:07:02;;;;;;;3.80;2.72;;;15.70;88.40;;;;;;4200143;28;20438;-40
2024/04/03 10:09:42;;;;;;;2.90;2.63;;;15.70;88.40;;;;;;4177559;28;20059;-40
2024/04/03 10:12:22;;;;;;;2.53;2.42;;;15.70;88.40;;;;;;4199313;28;20067;-40
2024/04/03 10:15:04;;;;;;;3.03;2.60;;;15.70;88.40;;;;;;4200574;28;20399;-40
2024/04/03 10:17:47;;;;;;;2.30;2.20;;;15.80;88.50;;;;;;4198706;28;20058;-40
2024/04/03 10:20:35;;;;;;;7.55;2.85;;;15.70;88.30;;;;;;4199329;28;20082;-40
2024/04/03 10:23:14;;;;;;;2.35;2.15;;;15.70;88.20;;;;;;4200606;28;20086;-40
2024/04/03 10:25:55;;;;;;;2.40;2.30;;;15.70;88.20;;;;;;4200275;28;20055;-40
2024/04/03 10:28:34;;;;;;;2.40;2.20;;;15.80;88.20;;;;;;4199664;28;20062;-40
2024/04/03 10:31:20;;;;;;;2.90;2.70;;;15.70;88.10;;;;;;4200141;28;20143;-40
2024/04/03 10:34:01;;;;;;;2.50;2.30;;;15.70;88.10;;;;;;4197938;28;20058;-40
2024/04/03 10:36:41;;;;;;;2.50;2.30;;;15.80;88.20;;;;;;4199612;28;20074;-40
2024/04/03 10:39:21;;;;;;;2.13;2.03;;;15.70;88.20;;;;;;4199112;28;20395;-40
2024/04/03 10:42:01;;;;;;;1.90;1.80;;;15.80;88.30;;;;;;4196267;28;20054;-40
2024/04/03 10:44:41;;;;;;;4.32;2.60;;;15.80;88.20;;;;;;4197060;28;20136;-40
2024/04/03 10:47:22;;;;;;;1.55;1.48;;;15.80;88.20;;;;;;4182122;28;20047;-40
2024/04/03 10:50:01;;;;;;;1.90;1.80;;;15.80;88.10;;;;;;4181457;28;20074;-40
2024/04/03 10:52:43;;;;;;;2.78;2.00;;;15.80;88.10;;;;;;4181779;28;20058;-40
2024/04/03 10:55:23;;;;;;;1.20;1.20;;;15.80;88.10;;;;;;4199660;28;20055;-39
2024/04/03 10:58:04;;;;;;;1.80;1.70;;;15.80;88.10;;;;;;4198823;28;20043;-40
2024/04/03 11:00:43;;;;;;;;;;;15.80;88.10;;;;;;4197913;28;20101;-40
2024/04/03 11:03:25;;;;;;;1.80;1.70;;;15.80;88.00;;;;;;4182880;28;20370;-40
2024/04/03 11:06:05;;;;;;;1.80;1.70;;;15.80;88.00;;;;;;4197208;28;20129;-40
2024/04/03 11:08:45;;;;;;;1.95;1.83;;;15.80;88.10;;;;;;4198067;28;20140;-40
2024/04/03 11:11:24;;;;;;;2.25;2.08;;;15.80;88.10;;;;;;4199099;28;20125;-41
2024/04/03 11:14:05;;;;;;;3.72;2.95;;;15.90;88.30;;;;;;4202591;28;20491;-41
2024/04/03 11:16:45;;;;;;;2.83;2.60;;;15.90;88.50;;;;;;4202972;28;20062;-41
2024/04/03 11:19:26;;;;;;;3.42;3.05;;;15.90;88.60;;;;;;4201922;28;20544;-41
2024/04/03 11:22:05;;;;;;;;;;;16.00;88.80;;;;;;4203292;28;20054;-41
2024/04/03 11:24:45;;;;;;;3.72;3.00;;;16.00;88.70;;;;;;4177561;28;20057;-40
2024/04/03 11:27:24;;;;;;;3.30;3.03;;;16.00;88.60;;;;;;4203445;28;20047;-41
2024/04/03 11:30:05;;;;;;;3.90;3.50;;;16.10;88.70;;;;;;4203226;28;20059;-40
2024/04/03 11:32:45;;;;;;;3.63;3.30;;;16.10;88.60;;;;;;4201875;28;20093;-41
2024/04/03 11:35:28;;;;;;;3.60;3.10;;;16.10;88.50;;;;;;4168828;28;20060;-40
2024/04/03 11:38:07;;;;;;;3.40;3.10;;;16.20;88.40;;;;;;4203097;28;20051;-40
2024/04/03 11:40:47;;;;;;;5.35;3.47;;;16.20;88.20;;;;;;4203022;28;20083;-40
2024/04/03 11:43:26;;;;;;;3.53;3.33;;;16.20;88.10;;;;;;4202804;28;20158;-40
2024/04/03 11:46:06;;;;;;;7.43;3.50;;;16.20;88.00;;;;;;4202701;28;20055;-39
2024/04/03 11:48:45;;;;;;;4.22;3.92;;;16.30;87.80;;;;;;4202028;28;20066;-40
2024/04/03 11:51:26;;;;;;;5.00;4.50;;;16.30;87.60;;;;;;4191154;28;20667;-40
2024/04/03 11:54:07;;;;;;;;;;;16.30;87.50;;;;;;4203285;28;20058;-39
2024/04/03 11:56:47;;;;;;;6.53;3.35;;;16.40;87.40;;;;;;4202421;28;19931;-40
2024/04/03 11:59:26;;;;;;;4.20;3.88;;;16.30;87.20;;;;;;4202295;28;20186;-40
2024/04/03 12:02:06;;;;;;;3.30;3.00;;;16.40;87.20;;;;;;4201571;28;20240;-40
2024/04/03 12:04:46;;;;;;;3.70;3.30;;;16.40;87.20;;;;;;4202040;28;20659;-39
2024/04/03 12:07:28;;;;;;;5.07;3.38;;;16.40;87.10;;;;;;4201319;28;20051;-40
2024/04/03 12:10:09;;;;;;;3.42;3.22;;;16.40;86.90;;;;;;4201899;28;20047;-39
2024/04/03 12:12:49;;;;;;;3.00;2.80;;;16.50;86.90;;;;;;4201205;28;20067;-39
2024/04/03 12:15:28;;;;;;;3.45;2.88;;;16.50;86.80;;;;;;4198311;28;20106;-40
2024/04/03 12:18:10;;;;;;;2.55;2.45;;;16.50;86.80;;;;;;4201906;28;20050;-40
2024/04/03 12:20:49;;;;;;;3.40;3.10;;;16.50;86.70;;;;;;4202054;28;20059;-40
2024/04/03 12:23:31;;;;;;;3.45;3.13;;;16.60;86.60;;;;;;4201978;28;20132;-40
2024/04/03 12:26:10;;;;;;;2.80;2.60;;;16.60;86.70;;;;;;4202555;28;20541;-40
2024/04/03 12:28:51;;;;;;;5.00;2.90;;;16.60;86.50;;;;;;4202323;28;20055;-40
2024/04/03 12:31:30;;;;;;;4.72;3.30;;;16.60;86.30;;;;;;4202309;28;20093;-40
2024/04/03 12:34:11;;;;;;;3.13;2.90;;;16.60;86.10;;;;;;4200926;28;20482;-40
2024/04/03 12:36:49;;;;;;;3.92;3.05;;;16.60;86.10;;;;;;4200739;28;20125;-40
2024/04/03 12:39:31;;;;;;;7.05;2.90;;;16.60;86.20;;;;;;4201871;28;20055;-40
2024/04/03 12:42:10;;;;;;;;;;;16.60;86.20;;;;;;4202775;28;20176;-40
2024/04/03 12:44:50;;;;;;;2.78;2.50;;;16.50;86.20;;;;;;4196112;28;19926;-40
2024/04/03 12:47:29;;;;;;;2.83;2.60;;;16.50;86.10;;;;;;4196270;28;20083;-40
2024/04/03 12:50:10;;;;;;;4.28;2.30;;;16.50;86.20;;;;;;4183535;28;20079;-40
2024/04/03 12:52:49;;;;;;;4.03;2.10;;;16.50;86.20;;;;;;4196492;28;20593;-40
2024/04/03 12:55:30;;;;;;;3.45;2.10;;;16.40;86.20;;;;;;4186127;28;20185;-38
2024/04/03 12:58:09;;;;;;;2.17;1.92;;;16.40;86.40;;;;;;4200357;28;20102;-38
2024/04/03 13:00:49;;;;;;;2.60;2.40;;;16.40;86.50;;;;;;4199898;28;20090;-38
2024/04/03 13:03:28;;;;;;;2.75;2.00;;;16.40;86.60;;;;;;4201156;28;20057;-38
2024/04/03 13:06:08;;;;;;;2.33;2.20;;;16.40;86.80;;;;;;4177049;28;20399;-38
2024/04/03 13:08:48;;;;;;;2.28;2.10;;;16.40;86.90;;;;;;4199287;28;20156;-38
2024/04/03 13:11:29;;;;;;;2.80;2.50;;;16.50;86.80;;;;;;4196952;28;20054;-38
2024/04/03 13:14:11;;;;;;;2.85;1.88;;;16.50;86.80;;;;;;4200551;28;20157;-38
2024/04/03 13:16:51;;;;;;;3.95;2.25;;;16.50;86.70;;;;;;4200027;28;20051;-38
2024/04/03 13:19:30;;;;;;;2.35;2.13;;;16.50;86.60;;;;;;4200877;28;20059;-39
2024/04/03 13:22:15;;;;;;;2.80;2.17;;;16.50;86.50;;;;;;4199636;28;20441;-38
2024/04/03 13:24:54;;;;;;;2.13;1.90;;;16.50;86.40;;;;;;4201385;28;20066;-39
2024/04/03 13:27:36;;;;;;;2.67;2.45;;;16.50;86.40;;;;;;4200988;28;20092;-39
2024/04/03 13:30:16;;;;;;;2.78;2.58;;;16.50;86.40;;;;;;4199846;28;20445;-38
2024/04/03 13:32:56;;;;;;;3.20;2.17;;;16.40;86.30;;;;;;4189434;28;20139;-39
2024/04/03 13:35:36;;;;;;;2.30;2.10;;;16.50;86.30;;;;;;4200592;28;20114;-42
2024/04/03 13:38:17;;;;;;;3.20;1.60;;;16.40;86.20;;;;;;4198496;28;20186;-45
2024/04/03 13:41:00;;;;;;;2.80;2.00;;;16.40;86.20;;;;;;4201033;28;20408;-44
2024/04/03 13:43:42;;;;;;;3.17;2.22;;;16.40;86.20;;;;;;4200400;28;20556;-45
2024/04/03 13:46:21;;;;;;;2.17;2.08;;;16.40;86.20;;;;;;4198772;28;20055;-44
2024/04/03 13:49:01;;;;;;;2.58;2.40;;;16.50;87.00;;;;;;4198500;28;20055;-44
2024/04/03 13:51:40;;;;;;;2.40;2.20;;;16.50;86.00;;;;;;4200884;28;20525;-44
2024/04/03 13:54:20;;;;;;;3.00;2.80;;;16.50;85.90;;;;;;4200373;28;20090;-44